KHUF/HUF METAR and TAF weather

Enter ICAO airport designator
Station Type Date Time Source
KHUF METAR 2021/05/11 16:53 UTC NOAA

KHUF 111653Z 03012G20KT 10SM CLR 14/01 A3031 RMK AO2 SLP266 T01390011


Station Type Date Time Source
KHUF Decoded METAR 2021/05/11 16:53 UTC NOAA

TERRE HAUTE INTERNATIONAL -HULMAN FLD, IN, United States (KHUF) 39-27N 087-19W 179M
May 11, 2021 - 12:53 PM EDT / 2021.05.11 1653 UTC
Wind: from the NNE (030 degrees) at 14 MPH (12 KT) gusting to 23 MPH (20 KT):0
Visibility: 10 mile(s):0
Sky conditions: clear
Temperature: 57.0 F (13.9 C)
Dew Point: 34.0 F (1.1 C)
Relative Humidity: 41%
Pressure (altimeter): 30.31 in. Hg (1026 hPa)
ob: KHUF 111653Z 03012G20KT 10SM CLR 14/01 A3031 RMK AO2 SLP266 T01390011
cycle: 17

Station Type Date Time Source
KHUF TAF 2021/05/11 12:27 UTC NOAA

TAF KHUF 111125Z 1112/1212 04006KT P6SM BKN060
FM111300 04006KT P6SM SCT080

Example: see airport list